Latest Coastal Weather Observations for Dennes Point

IDT60701

Issued at 5:11 am EDT Monday 2 February 2015 (issued every 10 minutes, with the page automatically refreshed every 10 minutes)

About coastal observations | Map of coastal stations | Coastal observations for TAS | Marine services | Other Formats
Station Details ID: 094255 Name: DENNES POINT Lat: -43.06 Lon: 147.36 Height: 5.67 m
Data from the previous 72 hours. | See also: Recent months at Dennes Point
Date/Time
EDT
Temp

°C
Wind Pressure Rain
since 9am
mm
Weather Cloud Vis
km
Sea
Height
m
Swell
Dir
 
Speed
knots
Gust
knots
hPa Trend Height
m
Period
s
Dir
02/05:00am 12.5 SW 8 11 1017.5 - 0.0 - - - - - - -
02/04:30am 12.4 SW 4 6 1017.6 - 0.0 - - - - - - -
02/04:00am 12.6 SW 7 9 1017.6 - 0.0 - - - - - - -
02/03:30am 12.6 SW 7 10 1017.7 - 0.0 - - - - - - -
02/03:00am 12.7 WSW 9 12 1017.7 - 0.0 - - - - - - -
02/02:30am 12.7 WSW 11 14 1017.9 - 0.0 - - - - - - -
02/02:00am 12.6 WSW 8 10 1017.8 - 0.0 - - - - - - -
02/01:30am 12.4 WSW 9 11 1018.0 - 0.0 - - - - - - -
02/01:00am 11.6 SSW 4 6 1018.2 - 0.0 - - - - - - -
02/12:30am 11.5 SW 6 8 1018.3 - 0.0 - - - - - - -
02/12:00am 11.5 SSW 6 7 1018.3 - 0.0 - - - - - - -
 
Date/Time
EDT
Temp

°C
Wind Pressure Rain
since 9am
mm
Weather Cloud Vis
km
Sea
Height
m
Swell
Dir
 
Speed
knots
Gust
knots
hPa Trend Height
m
Period
s
Dir
01/11:30pm 12.6 WSW 6 9 1018.2 - 0.0 - - - - - - -
01/11:00pm 12.3 W 9 11 1018.2 - 0.0 - - - - - - -
01/10:30pm 12.2 WSW 9 11 1018.4 - 0.0 - - - - - - -
01/10:00pm 12.6 SW 7 11 1018.6 - 0.0 - - - - - - -
01/09:30pm 13.1 WSW 7 10 1018.3 - 0.0 - - - - - - -
01/09:00pm 12.7 SW 7 9 1018.0 - 0.0 - - - - - - -
01/08:30pm 12.6 SSW 7 12 1017.9 - 0.0 - - - - - - -
01/08:00pm 13.1 SW 9 15 1017.5 - 0.0 - - - - - - -
01/07:30pm 13.5 SSW 8 10 1017.1 - 0.0 - - - - - - -
01/07:00pm 13.4 SW 10 14 1017.0 - 0.0 - - - - - - -
01/06:30pm 13.6 SSW 9 14 1016.6 - 0.0 - - - - - - -
01/06:00pm 13.9 SSW 8 13 1016.5 - 0.0 - - - - - - -
01/05:30pm 13.9 SW 11 16 1016.4 - 0.0 - - - - - - -
01/05:00pm 13.7 SSW 9 15 1016.4 - 0.0 - - - - - - -
01/04:30pm 14.1 SSW 10 17 1016.2 - 0.0 - - - - - - -
01/04:00pm 14.3 SSW 11 19 1016.1 - 0.0 - - - - - - -
01/03:30pm 14.6 SSW 9 15 1016.0 - 0.0 - - - - - - -
01/03:00pm 13.9 SSW 14 20 1016.0 - 0.0 - - - - - - -
01/02:30pm 13.9 SSW 11 18 1015.9 - 0.0 - - - - - - -
01/02:00pm 13.1 SSW 10 17 1015.8 - 0.0 - - - - - - -
01/01:30pm 13.9 SW 10 13 1015.7 - 0.0 - - - - - - -
01/01:00pm 13.7 SW 11 14 1015.6 - 0.0 - - - - - - -
01/12:30pm 13.6 SW 10 15 1015.8 - 0.0 - - - - - - -
01/12:00pm 13.7 SW 11 17 1015.7 - 0.0 - - - - - - -
01/11:30am 13.7 SW 10 15 1015.6 - 0.0 - - - - - - -
01/11:00am 13.2 WSW 11 14 1015.6 - 0.0 - - - - - - -
01/10:30am 13.3 SSW 9 13 1015.4 - 0.0 - - - - - - -
01/10:00am 12.6 SW 9 14 1015.2 - 0.0 - - - - - - -
01/09:30am 12.8 SW 9 13 1014.9 - 0.0 - - - - - - -
01/09:00am 12.6 SW 8 12 1014.7 - 1.2 - - - - - - -
01/08:30am 12.2 SW 7 12 1014.4 - 1.2 - - - - - - -
01/08:00am 12.0 SSW 5 11 1014.0 - 1.2 - - - - - - -
01/07:30am 11.9 SSW 7 13 1013.7 - 1.2 - - - - - - -
01/07:00am 12.0 SSW 10 19 1013.4 - 1.2 - - - - - - -
01/06:30am 12.0 SSW 7 13 1013.2 - 1.2 - - - - - - -
01/06:00am 12.0 SSW 8 12 1012.8 - 1.2 - - - - - - -
01/05:30am 11.8 SSW 8 13 1012.8 - 1.2 - - - - - - -
01/05:00am 11.7 SSW 8 11 1012.6 - 1.2 - - - - - - -
01/04:30am 11.7 SSW 10 15 1012.6 - 1.2 - - - - - - -
01/04:00am 12.0 SSW 10 15 1012.6 - 1.2 - - - - - - -
01/03:30am 12.0 SSW 8 12 1012.7 - 1.0 - - - - - - -
01/03:00am 12.0 SW 11 16 1012.6 - 1.0 Rain - - - - - -
01/02:30am 11.9 SW 10 16 1012.5 - 0.8 - - - - - - -
01/02:00am 12.0 SSW 9 13 1012.7 - 0.8 - - - - - - -
01/01:30am 12.0 SSW 10 17 1012.9 - 0.8 - - - - - - -
01/01:00am 12.0 SSW 9 15 1013.0 - 0.6 - - - - - - -
01/12:30am 12.3 SSW 8 17 1013.1 - 0.6 - - - - - - -
01/12:00am 12.4 SSW 8 14 1013.1 - 0.6 - - - - - - -
 
Date/Time
EDT
Temp

°C
Wind Pressure Rain
since 9am
mm
Weather Cloud Vis
km
Sea
Height
m
Swell
Dir
 
Speed
knots
Gust
knots
hPa Trend Height
m
Period
s
Dir
31/11:30pm 12.8 SSW 8 10 1013.2 - 0.6 - - - - - - -
31/11:00pm 12.9 SSW 8 13 1013.3 - 0.6 - - - - - - -
31/10:30pm 13.1 SSW 7 14 1013.3 - 0.6 - - - - - - -
31/10:00pm 13.3 SSW 6 9 1013.3 - 0.6 - - - - - - -
31/09:30pm 13.4 SSW 8 13 1013.2 - 0.6 - - - - - - -
31/09:00pm 13.3 SSW 5 8 1012.9 - 0.6 - - - - - - -
31/08:30pm 13.4 SSW 6 10 1012.7 - 0.6 - - - - - - -
31/08:00pm 13.7 SSW 8 13 1012.4 - 0.6 - - - - - - -
31/07:30pm 14.0 SSW 7 12 1012.2 - 0.6 - - - - - - -
31/07:00pm 14.5 SSW 10 16 1011.9 - 0.6 - - - - - - -
31/06:30pm 14.7 SSW 9 15 1011.8 - 0.6 - - - - - - -
31/06:00pm 14.5 SSW 10 16 1011.7 - 0.6 - - - - - - -
31/05:30pm 14.4 SSW 10 19 1011.5 - 0.6 - - - - - - -
31/05:00pm 14.9 SSW 11 16 1011.4 - 0.6 - - - - - - -
31/04:30pm 15.0 SSW 12 18 1011.2 - 0.6 - - - - - - -
31/04:00pm 14.4 SSW 13 19 1011.2 - 0.6 - - - - - - -
31/03:30pm 13.9 SSW 11 17 1011.2 - 0.6 - - - - - - -
31/03:00pm 13.9 SSW 11 18 1011.2 - 0.4 - - - - - - -
31/02:30pm 13.9 SSW 12 18 1011.2 - 0.4 - - - - - - -
31/02:00pm 13.8 SSW 12 20 1011.4 - 0.4 - - - - - - -
31/01:30pm 13.8 SSW 12 16 1011.5 - 0.4 - - - - - - -
31/01:00pm 13.7 SSW 12 20 1011.6 - 0.4 - - - - - - -
31/12:30pm 13.6 SW 10 17 1011.6 - 0.4 - - - - - - -
31/12:00pm 13.7 SSW 8 14 1011.8 - 0.4 Recent precip. - - - - - -
31/11:30am 13.7 SSW 10 16 1012.0 - 0.4 - - - - - - -
31/11:00am 13.6 SSW 9 13 1012.0 - 0.2 - - - - - - -
31/10:30am 13.8 SSW 9 14 1012.0 - 0.2 - - - - - - -
31/10:00am 13.5 SSW 9 17 1012.1 - 0.2 - - - - - - -
31/09:30am 13.5 SSW 9 14 1012.2 - 0.0 - - - - - - -
31/09:00am 13.4 SSW 11 18 1012.2 - 9.4 Recent precip. - - - - - -
31/08:30am 13.3 SSW 8 12 1012.1 - 8.8 - - - - - - -
31/08:00am 13.2 SSW 9 13 1012.0 - 8.4 - - - - - - -
31/07:30am 13.2 SSW 8 12 1012.0 - 8.0 - - - - - - -
31/07:00am 13.1 SW 9 14 1012.0 - 7.8 - - - - - - -
31/06:30am 13.0 SSW 7 12 1012.0 - 7.2 - - - - - - -
31/06:00am 13.0 SW 8 11 1011.8 - 6.6 Recent precip. - - - - - -
31/05:30am 12.9 SSW 10 16 1011.7 - 6.0 - - - - - - -
31/05:00am 13.0 SSW 9 13 1011.6 - 5.6 - - - - - - -
31/04:30am 13.0 SSW 8 16 1011.9 - 5.2 - - - - - - -
31/04:00am 12.9 SSW 9 15 1012.1 - 4.6 - - - - - - -
31/03:30am 12.8 SSW 8 12 1012.3 - 4.6 - - - - - - -
31/03:00am 12.7 SSW 9 14 1012.7 - 4.2 Rain - - - - - -
31/02:30am 12.6 SSW 8 12 1012.9 - 3.8 - - - - - - -
31/02:00am 12.6 SSW 7 11 1013.3 - 3.4 - - - - - - -
31/01:30am 12.5 SW 11 17 1013.5 - 2.8 - - - - - - -
31/01:00am 12.4 SSW 10 17 1013.8 - 2.4 - - - - - - -
31/12:30am 12.4 SSW 11 16 1013.8 - 2.0 - - - - - - -
31/12:00am 12.2 SSW 9 15 1014.2 - 1.6 - - - - - - -
 
Date/Time
EDT
Temp

°C
Wind Pressure Rain
since 9am
mm
Weather Cloud Vis
km
Sea
Height
m
Swell
Dir
 
Speed
knots
Gust
knots
hPa Trend Height
m
Period
s
Dir
30/11:30pm 12.6 SSW 12 17 1014.5 - 1.6 - - - - - - -
30/11:00pm 13.4 SSW 11 18 1014.9 - 1.6 - - - - - - -
30/10:30pm 13.7 SSW 9 15 1015.0 - 1.6 - - - - - - -
30/10:00pm 13.8 SSW 9 14 1015.2 - 1.6 - - - - - - -
30/09:30pm 13.8 SSW 8 13 1015.5 - 1.6 - - - - - - -
30/09:00pm 13.9 SSW 8 13 1015.4 - 1.6 - - - - - - -
30/08:30pm 13.9 SSW 9 16 1015.5 - 1.6 - - - - - - -
30/08:00pm 14.1 SSW 10 15 1015.5 - 1.6 - - - - - - -
30/07:30pm 14.3 SSW 9 15 1015.5 - 1.6 - - - - - - -
30/07:00pm 14.9 SSW 8 15 1015.6 - 1.6 - - - - - - -
30/06:30pm 14.2 S 10 17 1015.8 - 1.6 - - - - - - -
30/06:00pm 14.9 S 10 15 1015.9 - 1.6 - - - - - - -
30/05:30pm 15.2 SSE 7 13 1016.2 - 1.6 - - - - - - -
30/05:00pm 14.3 S 11 21 1016.6 - 1.6 - - - - - - -
30/04:30pm 14.9 SSW 8 13 1016.7 - 1.6 - - - - - - -
30/04:00pm 15.4 S 9 16 1016.9 - 1.6 - - - - - - -
30/03:30pm 14.6 S 8 15 1017.2 - 1.6 - - - - - - -
30/03:00pm 14.4 SSE 10 16 1017.5 - 1.6 - - - - - - -
30/02:30pm 15.3 S 8 13 1017.6 - 1.6 - - - - - - -
30/02:00pm 14.5 SSE 8 15 1017.8 - 1.6 - - - - - - -
30/01:30pm 14.5 SSE 8 17 1017.9 - 1.6 - - - - - - -
30/01:00pm 14.3 SSE 8 13 1018.2 - 1.4 - - - - - - -
30/12:30pm 14.7 SSE 8 14 1018.4 - 1.2 - - - - - - -
30/12:00pm 14.5 S 10 20 1018.6 - 1.0 Recent precip. - - - - - -
30/11:30am 13.5 SSE 10 15 1019.1 - 1.0 - - - - - - -
30/11:00am 13.9 S 6 12 1019.4 - 0.6 - - - - - - -
30/10:30am 14.1 S 5 10 1019.6 - 0.4 - - - - - - -
30/10:00am 13.2 S 6 9 1019.8 - 0.4 - - - - - - -
30/09:30am 13.0 S 6 11 1020.0 - 0.4 - - - - - - -
30/09:00am 12.7 SSE 6 10 1020.2 - 2.8 Rain - - - - - -
30/08:30am 12.7 S 6 11 1020.2 - 2.0 - - - - - - -
30/08:00am 12.9 SSW 6 10 1019.9 - 2.0 - - - - - - -
30/07:30am 12.3 S 5 10 1019.9 - 2.0 - - - - - - -
30/07:00am 12.1 S 7 13 1019.9 - 2.0 - - - - - - -
30/06:30am 12.0 S 5 7 1020.0 - 1.2 - - - - - - -
30/06:00am 12.1 SSW 5 9 1020.1 - 1.2 - - - - - - -
30/05:30am 12.2 SSW 4 7 1020.1 - 1.2 - - - - - - -

Other Formats:

Comma delimited format used in spreadsheet applications
http://www.bom.gov.au/fwo/IDT60701/IDT60701.94988.axf

JavaScript Object Notation format (JSON) in row-major order
http://www.bom.gov.au/fwo/IDT60701/IDT60701.94988.json